This is the latest recevied weather packets stored in our database for station/object PA1CD-13. If no packets are shown the sender has not sent any weather packets the latest 10 day(s).
| Time | Temp. | Humidity | Pressure | Rain* | Wind** | Luminosity | Snow |
|---|---|---|---|---|---|---|---|
| 1778248264 | 18.89° C | 40% | 1017.1 hPa | 0 mm | - | 763 W/m² | - |
| 1778248144 | 18.89° C | 40% | 1017.2 hPa | 0 mm | - | 774 W/m² | - |
| 1778248025 | 18.89° C | 39% | 1017.2 hPa | 0 mm | - | 784 W/m² | - |
| 1778247905 | 18.89° C | 40% | 1017.2 hPa | 0 mm | - | 811 W/m² | - |
| 1778247784 | 18.89° C | 39% | 1017.2 hPa | 0 mm | - | 675 W/m² | - |
| 1778247665 | 18.89° C | 39% | 1017.2 hPa | 0 mm | - | 784 W/m² | - |
| 1778247544 | 18.89° C | 39% | 1017.2 hPa | 0 mm | - | 784 W/m² | - |
| 1778247425 | 18.89° C | 40% | 1017.2 hPa | 0 mm | - | 795 W/m² | - |
| 1778247305 | 18.89° C | 40% | 1017.2 hPa | 0 mm | - | 795 W/m² | - |
| 1778247184 | 18.89° C | 42% | 1017.3 hPa | 0 mm | - | 818 W/m² | - |
| 1778247065 | 18.89° C | 42% | 1017.2 hPa | 0 mm | - | 818 W/m² | - |
| 1778246944 | 18.89° C | 42% | 1017.2 hPa | 0 mm | - | 832 W/m² | - |
| 1778246825 | 18.89° C | 43% | 1017.3 hPa | 0 mm | - | 610 W/m² | - |
| 1778246704 | 18.89° C | 43% | 1017.3 hPa | 0 mm | - | 610 W/m² | - |
| 1778246584 | 18.33° C | 44% | 1017.3 hPa | 0 mm | - | 355 W/m² | - |
| 1778246464 | 18.33° C | 44% | 1017.3 hPa | 0 mm | - | 816 W/m² | - |
| 1778246345 | 18.33° C | 44% | 1017.3 hPa | 0 mm | - | 844 W/m² | - |
| 1778246225 | 18.33° C | 42% | 1017.3 hPa | 0 mm | - | 869 W/m² | - |
| 1778246105 | 18.33° C | 45% | 1017.4 hPa | 0 mm | - | 192 W/m² | - |
| 1778245985 | 18.33° C | 46% | 1017.4 hPa | 0 mm | - | 192 W/m² | - |
| 1778245864 | 18.33° C | 43% | 1017.4 hPa | 0 mm | - | 923 W/m² | - |
| 1778245745 | 18.33° C | 43% | 1017.3 hPa | 0 mm | - | 816 W/m² | - |
| 1778245624 | 18.33° C | 44% | 1017.4 hPa | 0 mm | - | 241 W/m² | - |
| 1778245504 | 18.33° C | 43% | 1017.4 hPa | 0 mm | - | 259 W/m² | - |
| 1778245385 | 18.33° C | 43% | 1017.4 hPa | 0 mm | - | 884 W/m² | - |
* Rain latest hour (hover to see other rain measurements)
** Current wind speed in m/s (hover to see current wind gust speed)